Weather at Seruyan Kuala Pembuang Airport

Public forecast

Using degrees Celsius for public forecast. Weather courtesy of forecast.io.

Closest aviation weather report (METAR) to Seruyan Kuala Pembuang Airport

Closest report is Syamsudin Noor International Airport, 133.5 nm (247.2 km) E.

2024/02/24 01:30 (retrieved 33 minutes ago)

WAOO 240130Z 02002KT 9999 FEW018 30/25 Q1012 NOSIG

Closest aviation forecast (TAF) to Seruyan Kuala Pembuang Airport

Forecast is more than 12 hours old.

Closest forecast is Penggung Airport, 313.6 nm (580.8 km) SW.

2024/02/22 12:59 (retrieved 2 days ago)

TAF WICD 221100Z 2212/2224 30006KT 6000 SCT018 TEMPO 2214/2217 4000 TSRA FEW016CB BECMG 2218/2219 3000 BR